Time;durP1;ratioP1;P1;durP2;ratioP2;P2;SDS_P1;SDS_P2;PMS_P1;PMS_P2;Temp;Humidity;BMP_temperature;BMP_pressure;BME280_temperature;BME280_humidity;BME280_pressure;Samples;Min_cycle;Max_cycle;Signal;HPM_P1;HPM_P2
2023/06/29 00:00:26;;;;;;;6.63;3.40;;;;;;;21.70;52.53;99998.38;4888359;29;20053;-87
2023/06/29 00:02:54;;;;;;;6.75;3.75;;;;;;;21.66;52.42;100003.38;4886412;29;20441;-89
2023/06/29 00:05:21;;;;;;;5.88;3.65;;;;;;;21.63;52.43;100001.09;4874781;29;20096;-87
2023/06/29 00:07:48;;;;;;;8.07;3.70;;;;;;;21.63;52.59;100004.63;4860698;29;20045;-89
2023/06/29 00:10:15;;;;;;;4.93;2.75;;;;;;;21.64;52.70;100000.03;4876317;29;20053;-88
2023/06/29 00:12:42;;;;;;;4.53;2.75;;;;;;;21.60;52.50;99996.06;4879561;29;20052;-88
2023/06/29 00:15:09;;;;;;;4.13;3.17;;;;;;;21.60;52.61;99991.50;4887465;29;20235;-88
2023/06/29 00:17:36;;;;;;;3.80;3.20;;;;;;;21.59;52.75;99992.53;4858626;29;20053;-87
2023/06/29 00:20:09;;;;;;;4.65;3.45;;;;;;;21.59;52.90;99995.22;4861997;29;20160;-87
2023/06/29 00:22:39;;;;;;;;;;;;;;;21.24;53.82;99984.50;4879389;29;20041;-88
2023/06/29 00:25:09;;;;;;;4.13;3.08;;;;;;;21.48;52.82;99986.91;4874128;29;19949;-88
2023/06/29 00:27:36;;;;;;;4.38;3.15;;;;;;;21.50;52.77;99982.97;4858366;29;20060;-87
2023/06/29 00:30:04;;;;;;;3.72;2.90;;;;;;;21.52;52.67;99980.03;4858591;29;20055;-86
2023/06/29 00:32:31;;;;;;;5.28;3.55;;;;;;;21.50;52.48;99982.09;4880931;29;20048;-88
2023/06/29 00:34:58;;;;;;;3.58;3.20;;;;;;;21.45;52.80;99977.34;4880695;29;20504;-88
2023/06/29 00:37:25;;;;;;;4.03;3.10;;;;;;;21.44;52.98;99979.19;4862139;29;20124;-88
2023/06/29 00:39:52;;;;;;;5.03;3.50;;;;;;;21.43;53.09;99976.69;4882995;29;20049;-87
2023/06/29 00:42:19;;;;;;;3.78;3.20;;;;;;;21.39;53.02;99978.97;4895903;29;20127;-87
2023/06/29 00:44:47;;;;;;;6.50;3.08;;;;;;;21.37;53.15;99967.50;4885803;29;20131;-88
2023/06/29 00:47:14;;;;;;;3.80;2.90;;;;;;;21.39;53.16;99970.84;4895787;29;20136;-88
2023/06/29 00:49:41;;;;;;;5.68;3.10;;;;;;;21.38;53.13;99971.03;4874516;29;20053;-88
2023/06/29 00:52:08;;;;;;;5.38;3.10;;;;;;;21.31;53.30;99965.59;4860223;29;20101;-88
2023/06/29 00:54:35;;;;;;;4.07;2.92;;;;;;;21.32;53.00;99967.28;4885815;29;20478;-89
2023/06/29 00:57:01;;;;;;;3.83;3.45;;;;;;;21.30;53.19;99965.81;4855199;29;20493;-88
2023/06/29 00:59:28;;;;;;;6.18;3.40;;;;;;;21.31;52.95;99965.59;4866506;29;20052;-88
2023/06/29 01:01:55;;;;;;;7.25;3.55;;;;;;;21.28;53.13;99963.31;4878181;29;20077;-88
2023/06/29 01:04:26;;;;;;;5.35;3.10;;;;;;;21.25;53.23;99966.44;4866636;29;20136;-87
2023/06/29 01:07:13;;;;;;;5.57;3.35;;;;;;;21.10;53.94;99960.34;4852601;29;20386;-88
2023/06/29 01:09:44;;;;;;;4.45;3.65;;;;;;;21.13;53.51;99954.53;4893201;29;20048;-87
2023/06/29 01:12:15;;;;;;;3.58;2.78;;;;;;;21.08;53.78;99957.00;4855785;29;20413;-88
2023/06/29 01:14:44;;;;;;;6.85;3.47;;;;;;;21.09;53.72;99959.53;4857857;29;20135;-87
2023/06/29 01:17:12;;;;;;;3.95;3.38;;;;;;;21.13;53.46;99954.53;4878058;29;20056;-87
2023/06/29 01:19:43;;;;;;;4.63;3.25;;;;;;;21.10;53.88;99953.06;4876960;29;20053;-88
2023/06/29 01:22:30;;;;;;;3.88;3.47;;;;;;;20.93;54.42;99957.97;4889679;29;20436;-87
2023/06/29 01:25:01;;;;;;;6.75;3.65;;;;;;;21.00;53.88;99955.31;4874502;29;20045;-88
2023/06/29 01:27:29;;;;;;;5.45;4.10;;;;;;;21.01;53.50;99949.72;4879696;29;20100;-87
2023/06/29 01:30:00;;;;;;;5.22;3.25;;;;;;;21.07;53.35;99948.09;4877871;29;20048;-88
2023/06/29 01:32:35;;;;;;;4.88;3.75;;;;;;;21.05;53.52;99955.53;4873322;29;20504;-88
2023/06/29 01:35:02;;;;;;;5.60;3.70;;;;;;;20.99;53.58;99953.66;4851661;29;20072;-88
2023/06/29 01:37:39;;;;;;;4.95;3.40;;;;;;;20.93;53.95;99959.84;4862971;29;20742;-88
2023/06/29 01:40:11;;;;;;;3.63;3.10;;;;;;;20.94;53.64;99958.78;4852823;29;20048;-88
2023/06/29 01:42:38;;;;;;;8.77;3.83;;;;;;;20.94;53.71;99948.00;4845963;29;20061;-87
2023/06/29 01:45:08;;;;;;;6.10;3.67;;;;;;;20.90;53.58;99952.97;4864125;29;20506;-88
2023/06/29 01:47:36;;;;;;;6.00;3.90;;;;;;;20.88;53.67;99954.22;4863274;29;20053;-87
2023/06/29 01:50:03;;;;;;;3.88;3.58;;;;;;;20.89;53.65;99954.03;4863880;29;20045;-88
2023/06/29 01:52:30;;;;;;;4.25;3.60;;;;;;;20.85;53.82;99947.34;4874887;29;20485;-88
2023/06/29 01:54:57;;;;;;;4.60;3.25;;;;;;;20.84;53.69;99947.53;4888887;29;20049;-89
2023/06/29 01:57:26;;;;;;;4.18;3.65;;;;;;;20.82;53.67;99947.75;4859752;29;20509;-87
2023/06/29 01:59:53;;;;;;;4.15;3.47;;;;;;;20.75;53.79;99938.78;4862571;29;20048;-89
2023/06/29 02:02:20;;;;;;;4.97;3.67;;;;;;;20.77;53.93;99947.50;4860568;29;20053;-87
2023/06/29 02:04:47;;;;;;;5.93;3.78;;;;;;;20.72;53.74;99934.63;4888775;29;20049;-88
2023/06/29 02:07:14;;;;;;;4.05;3.25;;;;;;;20.71;54.10;99937.50;4878858;29;20084;-87
2023/06/29 02:09:41;;;;;;;4.55;3.65;;;;;;;20.67;54.05;99941.66;4873855;29;20059;-88
2023/06/29 02:12:08;;;;;;;5.82;4.40;;;;;;;20.67;54.01;99941.66;4882870;29;20059;-87
2023/06/29 02:14:36;;;;;;;4.03;3.33;;;;;;;20.67;54.20;99934.38;4866534;29;20524;-88
2023/06/29 02:17:02;;;;;;;4.22;3.00;;;;;;;20.63;54.07;99934.97;4885144;29;20060;-89
2023/06/29 02:19:29;;;;;;;4.63;3.35;;;;;;;20.63;54.29;99937.66;4859650;29;20052;-88
2023/06/29 02:21:56;;;;;;;5.90;3.42;;;;;;;20.61;54.14;99935.19;4889565;29;20049;-87
2023/06/29 02:24:23;;;;;;;7.60;3.92;;;;;;;20.59;54.36;99929.16;4865058;29;20143;-87
2023/06/29 02:26:51;;;;;;;6.75;3.83;;;;;;;20.52;54.47;99929.06;4873200;29;20052;-88
2023/06/29 02:29:18;;;;;;;4.63;3.65;;;;;;;20.52;54.37;99931.78;4891986;29;20400;-87
2023/06/29 02:31:44;;;;;;;7.30;4.18;;;;;;;20.48;54.26;99927.81;4868607;29;20049;-87
2023/06/29 02:34:12;;;;;;;9.43;3.53;;;;;;;20.48;54.75;99927.81;4877687;29;20077;-87
2023/06/29 02:36:40;;;;;;;4.25;3.60;;;;;;;20.50;54.52;99933.00;4888091;29;20418;-87
2023/06/29 02:39:07;;;;;;;5.82;3.63;;;;;;;20.52;54.59;99933.63;4886083;29;20052;-87
2023/06/29 02:41:34;;;;;;;6.20;3.53;;;;;;;20.48;54.45;99917.03;4865646;29;20040;-88
2023/06/29 02:44:00;;;;;;;4.22;3.67;;;;;;;20.50;54.46;99923.03;4843990;29;20136;-88
2023/06/29 02:46:27;;;;;;;6.50;3.47;;;;;;;20.45;54.59;99917.41;4873782;29;20044;-89
2023/06/29 02:48:55;;;;;;;4.50;3.30;;;;;;;20.45;54.52;99924.66;4859975;29;20053;-87
2023/06/29 02:51:22;;;;;;;4.15;3.75;;;;;;;20.43;54.36;99926.72;4862739;29;20144;-88
2023/06/29 02:53:52;;;;;;;3.72;3.30;;;;;;;20.36;54.57;99918.59;4844401;29;20054;-89
2023/06/29 02:56:21;;;;;;;3.80;3.42;;;;;;;20.36;54.54;99926.69;4868713;29;20080;-88
2023/06/29 02:58:48;;;;;;;5.68;3.58;;;;;;;20.33;54.68;99917.13;4887675;29;20561;-88
2023/06/29 03:01:20;;;;;;;3.78;3.47;;;;;;;20.34;54.46;99913.41;4881530;29;20052;-87
2023/06/29 03:03:46;;;;;;;3.90;3.55;;;;;;;20.29;54.41;99913.16;4889789;29;20056;-88
2023/06/29 03:06:13;;;;;;;5.75;3.80;;;;;;;20.33;54.60;99922.53;4879202;29;20123;-88
2023/06/29 03:08:40;;;;;;;4.60;3.70;;;;;;;20.31;54.72;99916.50;4848134;29;20116;-89
2023/06/29 03:11:07;;;;;;;6.32;3.60;;;;;;;20.25;54.59;99911.91;4894393;29;20048;-88
2023/06/29 03:13:34;;;;;;;4.30;3.42;;;;;;;20.23;54.74;99915.81;4884619;29;20056;-88
2023/06/29 03:16:01;;;;;;;7.20;3.47;;;;;;;20.19;54.69;99918.06;4885902;29;20053;-88
2023/06/29 03:18:28;;;;;;;5.07;3.70;;;;;;;20.20;54.80;99922.44;4862462;29;20463;-86
2023/06/29 03:20:54;;;;;;;6.15;3.70;;;;;;;20.17;54.99;99914.72;4859393;29;20052;-86
2023/06/29 03:23:31;;;;;;;5.45;3.50;;;;;;;20.07;55.05;99920.44;4859572;29;20095;-86
2023/06/29 03:25:58;;;;;;;5.82;3.70;;;;;;;20.14;54.87;99913.25;4873549;29;20040;-85
2023/06/29 03:28:24;;;;;;;5.22;3.67;;;;;;;20.15;54.80;99911.41;4879840;29;20415;-85
2023/06/29 03:30:51;;;;;;;6.15;3.75;;;;;;;20.12;55.14;99912.66;4852885;29;20052;-86
2023/06/29 03:33:18;;;;;;;5.47;3.40;;;;;;;20.10;55.04;99912.00;4855236;29;20226;-85
2023/06/29 03:35:45;;;;;;;4.95;3.70;;;;;;;20.06;55.16;99916.09;4880414;29;20452;-85
2023/06/29 03:38:12;;;;;;;4.40;3.78;;;;;;;20.09;54.90;99902.22;4877486;29;20047;-86
2023/06/29 03:40:39;;;;;;;3.97;3.47;;;;;;;20.09;54.93;99907.63;4889195;29;20381;-85
2023/06/29 03:43:07;;;;;;;4.60;3.70;;;;;;;20.08;54.85;99914.06;4867087;29;20041;-86
2023/06/29 03:45:34;;;;;;;5.72;4.13;;;;;;;20.11;54.87;99912.81;4892495;29;20476;-86
2023/06/29 03:48:00;;;;;;;5.03;3.92;;;;;;;20.23;54.93;99913.13;4858391;29;20055;-85
2023/06/29 03:50:27;;;;;;;6.53;4.00;;;;;;;20.30;54.60;99906.75;4883028;29;20077;-86
2023/06/29 03:52:54;;;;;;;9.75;4.03;;;;;;;20.41;54.52;99913.44;4886453;29;20530;-86
2023/06/29 03:55:21;;;;;;;6.90;3.78;;;;;;;20.52;54.54;99903.97;4871188;29;20048;-85
2023/06/29 03:57:48;;;;;;;9.45;4.78;;;;;;;20.69;54.79;99899.13;4882951;29;20041;-85
2023/06/29 04:00:16;;;;;;;6.95;4.13;;;;;;;20.85;54.60;99892.53;4872486;29;20048;-85
2023/06/29 04:02:42;;;;;;;7.15;4.03;;;;;;;20.91;53.38;99897.13;4889798;29;20057;-82
2023/06/29 04:05:09;;;;;;;6.13;3.70;;;;;;;21.17;53.10;99893.69;4860350;29;20052;-83
2023/06/29 04:07:36;;;;;;;4.65;3.97;;;;;;;21.84;51.88;99892.78;4896887;29;20064;-83
2023/06/29 04:10:03;;;;;;;6.05;3.90;;;;;;;22.23;50.30;99885.69;4859482;29;20041;-83
2023/06/29 04:12:30;;;;;;;6.13;3.97;;;;;;;22.33;49.77;99877.16;4881779;29;20044;-83
2023/06/29 04:14:57;;;;;;;6.07;3.65;;;;;;;22.36;49.74;99882.13;4857777;29;20053;-83
2023/06/29 04:17:23;;;;;;;5.28;4.40;;;;;;;22.29;50.06;99879.47;4883781;29;20486;-84
2023/06/29 04:19:50;;;;;;;7.43;4.40;;;;;;;22.23;50.07;99876.75;4875720;29;20056;-84
2023/06/29 04:22:17;;;;;;;5.63;3.97;;;;;;;22.07;50.37;99878.00;4879278;29;20049;-85
2023/06/29 04:24:44;;;;;;;6.70;3.70;;;;;;;22.02;50.47;99891.31;4885585;29;20083;-84
2023/06/29 04:27:11;;;;;;;6.75;4.38;;;;;;;21.93;50.62;99893.41;4893269;29;20388;-82
2023/06/29 04:29:37;;;;;;;7.95;4.25;;;;;;;21.92;50.35;99893.63;4880210;29;20052;-83
2023/06/29 04:32:04;;;;;;;6.68;4.50;;;;;;;21.92;50.48;99899.84;4885201;29;20068;-84
2023/06/29 04:34:31;;;;;;;6.28;4.13;;;;;;;21.80;50.69;99890.69;4858215;29;20113;-84
2023/06/29 04:37:01;;;;;;;5.57;4.60;;;;;;;21.87;50.62;99884.25;4907217;29;20141;-84
2023/06/29 04:39:28;;;;;;;5.63;4.78;;;;;;;21.87;50.62;99884.25;4873725;29;20052;-84
2023/06/29 04:42:00;;;;;;;6.57;4.20;;;;;;;21.91;50.72;99879.28;4891833;29;20521;-83
2023/06/29 04:44:34;;;;;;;8.88;4.20;;;;;;;21.89;50.39;99884.06;4876702;29;20410;-84
2023/06/29 04:47:01;;;;;;;5.63;4.32;;;;;;;21.87;50.44;99886.13;4888786;29;20043;-83
2023/06/29 04:49:31;;;;;;;5.75;4.30;;;;;;;21.84;50.65;99892.78;4890499;29;20052;-84
2023/06/29 04:51:59;;;;;;;5.90;4.15;;;;;;;21.78;50.62;99893.63;4868232;29;20055;-84
2023/06/29 04:54:27;;;;;;;6.70;4.50;;;;;;;21.68;51.16;99890.50;4875892;29;20044;-84
2023/06/29 04:56:54;;;;;;;8.73;4.30;;;;;;;21.61;51.06;99889.66;4880642;29;20061;-84
2023/06/29 04:59:23;;;;;;;6.20;4.18;;;;;;;21.60;51.37;99890.69;4865821;29;20059;-84
2023/06/29 05:01:50;;;;;;;5.80;4.60;;;;;;;21.56;51.40;99884.03;4875014;29;20580;-83
2023/06/29 05:04:17;;;;;;;9.25;5.15;;;;;;;21.49;51.21;99885.91;4875595;29;20067;-84
2023/06/29 05:06:44;;;;;;;6.15;4.60;;;;;;;21.45;51.36;99885.47;4872902;29;20047;-84
2023/06/29 05:09:11;;;;;;;9.23;4.85;;;;;;;21.45;51.69;99877.38;4878367;29;20044;-84
2023/06/29 05:11:37;;;;;;;6.00;4.85;;;;;;;21.32;51.71;99872.75;4891685;29;20129;-84
2023/06/29 05:14:04;;;;;;;5.15;4.75;;;;;;;21.25;51.96;99867.31;4845282;29;20048;-84
2023/06/29 05:16:31;;;;;;;5.25;4.63;;;;;;;21.25;52.17;99870.03;4884948;29;20099;-83
2023/06/29 05:18:58;;;;;;;7.07;5.72;;;;;;;21.26;52.30;99862.75;4841204;29;20085;-83
2023/06/29 05:21:27;;;;;;;8.70;4.93;;;;;;;21.28;52.38;99865.25;4880093;29;20053;-83
2023/06/29 05:23:53;;;;;;;9.38;5.35;;;;;;;21.30;52.27;99868.59;4888745;29;20124;-84
2023/06/29 05:26:20;;;;;;;10.20;6.05;;;;;;;21.30;52.40;99860.50;4878942;29;20489;-84
2023/06/29 05:28:47;;;;;;;8.48;5.10;;;;;;;21.27;52.49;99855.47;4881146;29;20056;-84
2023/06/29 05:31:30;;;;;;;8.45;5.13;;;;;;;21.23;52.88;99864.00;4866044;29;20568;-84
2023/06/29 05:33:57;;;;;;;7.75;5.22;;;;;;;21.23;52.74;99864.00;4887942;29;20397;-83
2023/06/29 05:36:24;;;;;;;6.55;5.07;;;;;;;21.32;52.68;99861.09;4877045;29;20452;-84
2023/06/29 05:38:50;;;;;;;6.93;5.07;;;;;;;21.30;52.81;99865.91;4860465;29;20662;-84
2023/06/29 05:41:17;;;;;;;6.22;5.50;;;;;;;21.36;52.96;99863.19;4877894;29;20630;-83
2023/06/29 05:43:44;;;;;;;8.68;5.55;;;;;;;21.30;53.13;99864.03;4893880;29;20096;-84
2023/06/29 05:46:11;;;;;;;6.88;4.95;;;;;;;21.31;53.16;99859.44;4871892;29;20493;-84
2023/06/29 05:48:37;;;;;;;11.77;5.47;;;;;;;21.32;53.29;99855.69;4856919;29;20040;-83
2023/06/29 05:51:04;;;;;;;9.68;5.10;;;;;;;21.38;53.03;99855.75;4879374;29;20056;-83
2023/06/29 05:53:32;;;;;;;9.60;5.57;;;;;;;21.44;52.87;99857.63;4888312;29;20048;-84
2023/06/29 05:55:59;;;;;;;7.72;5.25;;;;;;;21.51;52.85;99862.22;4881326;29;20095;-83
2023/06/29 05:58:26;;;;;;;9.05;5.40;;;;;;;21.52;52.69;99853.88;4873275;29;22136;-83
2023/06/29 06:00:52;;;;;;;5.95;4.90;;;;;;;21.54;52.53;99851.81;4886619;29;20780;-84
2023/06/29 06:03:20;;;;;;;6.70;5.13;;;;;;;21.62;52.28;99858.88;4873758;29;20049;-83
2023/06/29 06:05:47;;;;;;;9.82;4.50;;;;;;;21.63;52.61;99864.09;4888637;29;20052;-83
2023/06/29 06:08:14;;;;;;;11.00;5.15;;;;;;;21.73;52.45;99854.72;4866585;29;20051;-81
2023/06/29 06:10:41;;;;;;;7.35;4.85;;;;;;;21.75;52.04;99856.16;4893692;29;20511;-81
2023/06/29 06:13:09;;;;;;;6.68;4.47;;;;;;;21.78;52.28;99857.63;4890101;29;20041;-82
2023/06/29 06:15:36;;;;;;;5.85;4.65;;;;;;;21.77;52.25;99862.22;4864728;29;20135;-81
2023/06/29 06:18:02;;;;;;;7.28;4.80;;;;;;;21.76;52.11;99852.44;4887968;29;20045;-81
2023/06/29 06:20:29;;;;;;;5.97;4.40;;;;;;;21.79;52.13;99851.19;4898806;29;20405;-84
2023/06/29 06:22:56;;;;;;;6.00;4.38;;;;;;;21.84;52.03;99852.22;4899705;29;20049;-81
2023/06/29 06:25:23;;;;;;;7.88;4.75;;;;;;;21.86;52.00;99844.75;4873579;29;20075;-81
2023/06/29 06:27:50;;;;;;;4.63;4.00;;;;;;;21.91;51.80;99852.25;4861935;29;20074;-81
2023/06/29 06:30:17;;;;;;;11.65;4.63;;;;;;;21.94;51.63;99845.56;4892583;29;20036;-81
2023/06/29 06:32:44;;;;;;;10.32;4.68;;;;;;;21.97;51.42;99845.16;4885392;29;20045;-82
2023/06/29 06:35:12;;;;;;;7.75;4.75;;;;;;;21.99;51.47;99841.19;4872984;29;20052;-81
2023/06/29 06:37:39;;;;;;;8.23;4.30;;;;;;;22.02;51.89;99838.06;4869716;29;20041;-81
2023/06/29 06:40:09;;;;;;;7.85;4.78;;;;;;;22.07;51.97;99837.44;4856846;29;20040;-81
2023/06/29 06:42:36;;;;;;;5.50;4.55;;;;;;;22.10;51.67;99843.25;4863761;29;20044;-82
2023/06/29 06:45:04;;;;;;;8.02;4.07;;;;;;;22.13;51.82;99836.59;4892929;29;20056;-81
2023/06/29 06:47:31;;;;;;;8.80;4.00;;;;;;;22.16;51.65;99832.63;4875535;29;20052;-81
2023/06/29 06:49:59;;;;;;;5.78;4.43;;;;;;;22.17;51.48;99832.44;4886452;29;20048;-81
2023/06/29 06:52:26;;;;;;;7.00;4.20;;;;;;;22.16;51.18;99830.78;4887792;29;20127;-81
2023/06/29 06:54:53;;;;;;;6.93;4.32;;;;;;;22.21;51.42;99831.00;4891647;29;20065;-81
2023/06/29 06:57:20;;;;;;;7.80;4.25;;;;;;;22.23;51.24;99823.47;4882834;29;20048;-81
2023/06/29 06:59:47;;;;;;;8.68;4.70;;;;;;;22.28;51.26;99831.78;4875666;29;20555;-81
2023/06/29 07:02:14;;;;;;;5.30;3.85;;;;;;;22.30;51.67;99821.59;4870906;29;20052;-81
2023/06/29 07:04:41;;;;;;;4.93;3.70;;;;;;;22.33;51.89;99826.56;4861995;29;20519;-82
2023/06/29 07:07:08;;;;;;;8.30;4.10;;;;;;;22.39;51.52;99833.03;4880849;29;20052;-81
2023/06/29 07:09:35;;;;;;;6.00;4.43;;;;;;;22.42;51.85;99823.66;4885405;29;20060;-81
2023/06/29 07:12:02;;;;;;;7.07;4.55;;;;;;;22.38;51.90;99825.13;4879814;29;20489;-81
2023/06/29 07:14:29;;;;;;;6.43;4.72;;;;;;;22.42;52.07;99821.78;4865709;29;20048;-81
2023/06/29 07:16:55;;;;;;;11.65;4.93;;;;;;;22.45;52.51;99818.66;4883701;29;20066;-81
2023/06/29 07:19:22;;;;;;;5.00;4.13;;;;;;;22.49;52.71;99821.75;4896643;29;20053;-81
2023/06/29 07:21:52;;;;;;;8.52;4.50;;;;;;;22.52;52.93;99808.63;4861366;29;20063;-82
2023/06/29 07:24:22;;;;;;;5.78;3.95;;;;;;;22.57;52.84;99813.41;4871580;29;20053;-81
2023/06/29 07:26:48;;;;;;;6.13;4.30;;;;;;;22.62;52.87;99810.88;4894702;29;20079;-81
2023/06/29 07:29:15;;;;;;;5.18;4.05;;;;;;;22.63;52.85;99807.13;4892107;29;20045;-81
2023/06/29 07:31:42;;;;;;;5.90;3.78;;;;;;;22.67;52.42;99815.63;4881760;29;20432;-81
2023/06/29 07:34:09;;;;;;;7.97;3.90;;;;;;;22.68;52.50;99801.91;4894113;29;20047;-81
2023/06/29 07:36:36;;;;;;;8.68;3.80;;;;;;;22.70;52.52;99799.81;4879012;29;20104;-82
2023/06/29 07:39:03;;;;;;;4.57;4.15;;;;;;;22.74;52.34;99800.19;4883082;29;20048;-81
2023/06/29 07:41:31;;;;;;;5.55;3.95;;;;;;;22.75;52.39;99796.47;4894344;29;20485;-81
2023/06/29 07:43:59;;;;;;;4.95;3.95;;;;;;;22.79;52.24;99794.13;4887250;29;20033;-81
2023/06/29 07:46:26;;;;;;;7.20;4.07;;;;;;;22.86;52.20;99793.06;4869066;29;20127;-81
2023/06/29 07:48:54;;;;;;;4.25;3.55;;;;;;;22.91;51.24;99795.13;4878016;29;20049;-81
2023/06/29 07:51:22;;;;;;;9.57;3.50;;;;;;;22.92;50.99;99796.75;4854883;29;20041;-82
2023/06/29 07:53:50;;;;;;;8.20;4.03;;;;;;;22.96;51.14;99796.13;4875223;29;20071;-81
2023/06/29 07:56:17;;;;;;;5.15;3.75;;;;;;;22.98;50.68;99790.53;4868305;29;20480;-82
2023/06/29 07:58:44;;;;;;;9.82;3.50;;;;;;;22.98;50.25;99784.28;4871577;29;20049;-81
2023/06/29 08:01:11;;;;;;;5.22;3.45;;;;;;;23.00;50.46;99783.00;4882930;29;20048;-82
2023/06/29 08:03:39;;;;;;;7.35;3.55;;;;;;;23.05;49.36;99791.31;4877320;29;20493;-81
2023/06/29 08:06:26;;;;;;;5.93;3.08;;;;;;;23.09;49.51;99789.00;4890495;29;20120;-81
2023/06/29 08:08:56;;;;;;;10.13;3.92;;;;;;;23.11;48.82;99781.47;4904738;29;20112;-80
2023/06/29 08:11:23;;;;;;;3.97;2.60;;;;;;;23.12;47.98;99783.13;4897289;29;20063;-81
2023/06/29 08:13:50;;;;;;;6.70;2.85;;;;;;;23.17;48.21;99781.41;4902015;29;20040;-81
2023/06/29 08:16:17;;;;;;;4.60;3.35;;;;;;;23.20;48.68;99785.56;4901477;29;20043;-81
2023/06/29 08:18:43;;;;;;;6.32;3.20;;;;;;;23.20;48.55;99782.84;4879255;29;20532;-82
2023/06/29 08:21:10;;;;;;;3.58;2.80;;;;;;;23.26;48.33;99771.16;4892399;29;20056;-81
2023/06/29 08:23:37;;;;;;;4.80;3.05;;;;;;;23.26;48.18;99768.44;4868611;29;20049;-81
2023/06/29 08:26:04;;;;;;;7.68;3.60;;;;;;;23.31;47.68;99774.03;4868077;29;20135;-81
2023/06/29 08:28:31;;;;;;;6.70;3.20;;;;;;;23.32;47.52;99769.44;4876569;29;20085;-81
2023/06/29 08:30:58;;;;;;;5.88;3.10;;;;;;;23.38;46.78;99765.84;4871873;29;20567;-81
2023/06/29 08:33:25;;;;;;;7.43;2.80;;;;;;;23.39;46.67;99759.38;4882963;29;20568;-81
2023/06/29 08:35:52;;;;;;;7.15;3.00;;;;;;;23.37;46.79;99759.59;4873262;29;20401;-81
2023/06/29 08:38:18;;;;;;;6.63;2.83;;;;;;;23.39;46.48;99760.22;4872831;29;20124;-82
2023/06/29 08:40:48;;;;;;;9.50;3.30;;;;;;;23.43;46.42;99762.47;4878650;29;20108;-81
2023/06/29 08:43:15;;;;;;;4.13;2.88;;;;;;;23.39;46.41;99753.97;4897219;29;20389;-80
2023/06/29 08:45:42;;;;;;;4.78;2.88;;;;;;;23.42;46.58;99756.22;4868493;29;20059;-81
2023/06/29 08:48:14;;;;;;;5.95;3.00;;;;;;;23.45;46.54;99757.66;4887293;29;20482;-81
2023/06/29 08:50:48;;;;;;;3.95;2.70;;;;;;;23.43;46.34;99752.44;4863686;29;20401;-81
2023/06/29 08:53:15;;;;;;;4.40;2.65;;;;;;;23.43;46.54;99754.34;4897648;29;20048;-81
2023/06/29 08:55:43;;;;;;;5.68;2.83;;;;;;;23.45;45.74;99749.53;4881935;29;20155;-81
2023/06/29 08:58:10;;;;;;;3.70;2.95;;;;;;;23.50;45.84;99753.22;4893625;29;20052;-81
2023/06/29 09:00:37;;;;;;;5.57;2.75;;;;;;;23.57;46.13;99750.47;4895648;29;20041;-81
2023/06/29 09:03:04;;;;;;;5.60;2.90;;;;;;;23.63;45.65;99757.69;4883810;29;20450;-81
2023/06/29 09:05:32;;;;;;;5.50;2.60;;;;;;;23.66;45.46;99757.28;4864901;29;20052;-81
2023/06/29 09:07:59;;;;;;;4.00;2.72;;;;;;;23.72;45.18;99755.53;4891845;29;20064;-81
2023/06/29 09:10:26;;;;;;;4.93;3.10;;;;;;;23.71;45.23;99749.31;4880236;29;20108;-81
2023/06/29 09:12:53;;;;;;;3.17;2.22;;;;;;;23.73;45.18;99743.66;4886471;29;20044;-81
2023/06/29 09:15:20;;;;;;;3.88;2.60;;;;;;;23.76;44.63;99748.63;4861784;29;20097;-81
2023/06/29 09:17:54;;;;;;;4.32;2.50;;;;;;;23.78;44.39;99741.94;4882687;29;20054;-81
2023/06/29 09:20:21;;;;;;;4.63;3.30;;;;;;;23.81;44.46;99743.38;4897804;29;20127;-81
2023/06/29 09:22:52;;;;;;;4.20;2.90;;;;;;;23.81;44.67;99740.66;4884274;29;20107;-81
2023/06/29 09:25:19;;;;;;;5.15;2.65;;;;;;;23.82;44.75;99745.03;4885996;29;20056;-81
2023/06/29 09:28:04;;;;;;;5.00;2.83;;;;;;;23.83;44.83;99742.09;4881158;29;20127;-82
2023/06/29 09:30:38;;;;;;;7.07;2.88;;;;;;;23.85;44.62;99736.44;4885390;29;20060;-81
2023/06/29 09:33:09;;;;;;;5.85;3.20;;;;;;;23.89;44.63;99744.97;4878279;29;20504;-82
2023/06/29 09:35:39;;;;;;;5.32;2.22;;;;;;;23.90;44.77;99733.91;4883902;29;20041;-81
2023/06/29 09:38:06;;;;;;;4.40;3.38;;;;;;;23.90;44.59;99731.19;4866921;29;20132;-81
2023/06/29 09:40:46;;;;;;;4.75;2.88;;;;;;;23.89;43.36;99740.38;4879993;29;20127;-82
2023/06/29 09:43:22;;;;;;;5.10;3.13;;;;;;;23.95;43.90;99739.47;4878408;29;20041;-82
2023/06/29 09:45:51;;;;;;;4.45;2.75;;;;;;;24.02;44.18;99739.41;4875179;29;20051;-81
2023/06/29 09:48:21;;;;;;;3.47;2.40;;;;;;;24.06;44.38;99732.47;4884104;29;20078;-81
2023/06/29 09:50:51;;;;;;;4.72;2.70;;;;;;;24.13;44.15;99729.69;4894265;29;20054;-83
2023/06/29 09:53:39;;;;;;;6.10;2.75;;;;;;;24.10;44.56;99722.81;4854143;29;20513;-81
2023/06/29 09:56:06;;;;;;;4.57;3.17;;;;;;;24.18;44.08;99727.94;4897096;29;20135;-81
2023/06/29 09:58:33;;;;;;;3.75;2.60;;;;;;;24.17;43.90;99722.72;4851859;29;20052;-82
2023/06/29 10:01:00;;;;;;;4.95;3.00;;;;;;;24.20;44.10;99720.41;4884460;29;20048;-82
2023/06/29 10:03:27;;;;;;;4.57;3.05;;;;;;;24.26;44.70;99721.38;4887753;29;20065;-81
2023/06/29 10:05:57;;;;;;;6.82;3.92;;;;;;;24.31;44.23;99718.78;4863091;29;20048;-82
2023/06/29 10:08:27;;;;;;;4.72;2.85;;;;;;;24.36;43.87;99720.84;4865597;29;20147;-81
2023/06/29 10:10:56;;;;;;;8.43;2.83;;;;;;;24.39;43.50;99714.94;4894467;29;20054;-81
2023/06/29 10:13:25;;;;;;;4.47;2.95;;;;;;;24.36;43.99;99713.50;4890770;29;20080;-81
2023/06/29 10:15:53;;;;;;;6.13;3.40;;;;;;;24.41;43.86;99718.25;4905029;29;20412;-81
2023/06/29 10:18:26;;;;;;;3.53;2.88;;;;;;;24.38;43.55;99711.41;4870822;29;20045;-81
2023/06/29 10:20:53;;;;;;;5.85;2.80;;;;;;;24.39;43.63;99707.63;4875489;29;20048;-81
2023/06/29 10:23:21;;;;;;;4.75;3.38;;;;;;;24.44;43.91;99715.91;4842603;29;20063;-81
2023/06/29 10:25:51;;;;;;;5.22;3.35;;;;;;;24.44;43.89;99702.34;4879765;29;20404;-81
2023/06/29 10:28:18;;;;;;;5.93;2.90;;;;;;;24.50;43.89;99702.50;4873247;29;20052;-81
2023/06/29 10:30:46;;;;;;;5.13;2.65;;;;;;;24.53;43.62;99702.88;4893425;29;20060;-81
2023/06/29 10:33:20;;;;;;;4.25;2.60;;;;;;;24.58;43.25;99700.31;4894526;29;20558;-81
2023/06/29 10:35:57;;;;;;;5.25;2.50;;;;;;;24.53;43.11;99702.06;4873080;29;20041;-81
2023/06/29 10:38:32;;;;;;;3.92;2.80;;;;;;;24.61;43.54;99694.41;4883406;29;20055;-81
2023/06/29 10:40:59;;;;;;;6.35;2.58;;;;;;;24.62;43.51;99687.91;4891877;29;20552;-81
2023/06/29 10:43:33;;;;;;;5.22;3.20;;;;;;;24.66;43.51;99680.97;4876468;29;20485;-81
2023/06/29 10:46:00;;;;;;;4.57;2.45;;;;;;;24.71;43.60;99690.31;4897981;29;20041;-81
2023/06/29 10:48:26;;;;;;;6.90;3.25;;;;;;;24.71;43.51;99674.84;4887408;29;20065;-81
2023/06/29 10:51:14;;;;;;;3.42;2.58;;;;;;;24.69;43.17;99679.69;4891789;29;20067;-81
2023/06/29 10:53:41;;;;;;;5.03;2.70;;;;;;;24.72;42.91;99681.91;4869327;29;20426;-81
2023/06/29 10:56:27;;;;;;;4.40;2.63;;;;;;;24.60;42.28;99686.47;4857807;29;20045;-81
2023/06/29 10:58:54;;;;;;;5.43;3.33;;;;;;;24.64;42.21;99676.81;4872636;29;20041;-83
2023/06/29 11:01:21;;;;;;;6.60;2.70;;;;;;;24.67;42.90;99688.03;4896022;29;20044;-81
2023/06/29 11:03:49;;;;;;;5.10;2.75;;;;;;;24.67;42.99;99684.50;4864957;29;20108;-81
2023/06/29 11:06:16;;;;;;;4.18;3.00;;;;;;;24.75;42.42;99686.06;4896815;29;20115;-80
2023/06/29 11:09:12;;;;;;;4.25;2.35;;;;;;;24.73;42.37;99671.88;4879343;29;20087;-80
2023/06/29 11:11:40;;;;;;;6.20;3.30;;;;;;;24.83;42.84;99677.56;4881497;29;20085;-80
2023/06/29 11:14:10;;;;;;;9.23;3.13;;;;;;;24.86;43.00;99677.94;4892634;29;20152;-82
2023/06/29 11:16:39;;;;;;;4.95;2.63;;;;;;;24.92;43.22;99660.72;4887850;29;20655;-81
2023/06/29 11:19:06;;;;;;;4.07;3.00;;;;;;;25.02;43.10;99670.19;4880423;29;20392;-81
2023/06/29 11:21:36;;;;;;;4.95;3.25;;;;;;;25.12;42.65;99671.25;4862777;29;20045;-81
2023/06/29 11:24:03;;;;;;;4.68;3.35;;;;;;;25.21;42.58;99663.59;4890852;29;20049;-81
2023/06/29 11:26:31;;;;;;;6.50;2.90;;;;;;;25.26;42.03;99663.72;4876819;29;20131;-81
2023/06/29 11:28:58;;;;;;;6.88;3.00;;;;;;;25.28;42.17;99655.34;4890496;29;20044;-81
2023/06/29 11:31:24;;;;;;;4.15;3.00;;;;;;;25.33;41.88;99664.44;4866935;29;20048;-81
2023/06/29 11:33:52;;;;;;;8.25;3.55;;;;;;;25.33;41.51;99656.28;4867153;29;20072;-81
2023/06/29 11:36:33;;;;;;;4.18;2.45;;;;;;;25.27;41.39;99665.38;4882002;29;20052;-80
2023/06/29 11:39:10;;;;;;;5.20;3.08;;;;;;;25.27;41.31;99651.78;4874247;29;20040;-81